createdAt,value
2019-04-30T00:01:17.125Z,1.52
2019-04-30T00:03:46.226Z,1.30
2019-04-30T00:06:15.765Z,1.50
2019-04-30T00:08:45.244Z,1.60
2019-04-30T00:11:15.953Z,1.42
2019-04-30T00:13:45.933Z,1.37
2019-04-30T00:16:15.463Z,1.67
2019-04-30T00:18:55.502Z,1.42
2019-04-30T00:21:18.724Z,1.77
2019-04-30T00:23:47.582Z,1.70
2019-04-30T00:26:17.303Z,1.37
2019-04-30T00:28:47.830Z,1.50
2019-04-30T00:31:23.498Z,1.50
2019-04-30T00:33:52.822Z,1.45
2019-04-30T00:36:20.173Z,1.40
2019-04-30T00:38:49.538Z,1.40
2019-04-30T00:41:18.710Z,1.50
2019-04-30T00:43:50.762Z,1.55
2019-04-30T00:46:25.460Z,1.42
2019-04-30T00:48:49.648Z,1.45
2019-04-30T00:51:21.426Z,1.85
2019-04-30T00:53:51.375Z,1.35
2019-04-30T00:56:24.749Z,1.45
2019-04-30T00:58:51.539Z,1.60
2019-04-30T01:01:25.394Z,1.70
2019-04-30T01:03:59.115Z,1.60
2019-04-30T01:06:28.712Z,1.77
2019-04-30T01:09:04.867Z,1.50
2019-04-30T01:11:29.013Z,1.80
2019-04-30T01:13:59.033Z,1.80
2019-04-30T01:16:32.939Z,1.52
2019-04-30T01:19:01.001Z,1.50
2019-04-30T01:21:31.256Z,1.60
2019-04-30T01:24:00.404Z,1.80
2019-04-30T01:26:30.991Z,1.70
2019-04-30T01:29:02.071Z,1.50
2019-04-30T01:31:37.247Z,1.50
2019-04-30T01:34:05.190Z,1.80
2019-04-30T01:36:33.410Z,1.50
2019-04-30T01:39:02.752Z,1.80
2019-04-30T01:41:32.816Z,1.40
2019-04-30T01:44:03.723Z,1.57
2019-04-30T01:46:32.924Z,1.50
2019-04-30T01:49:02.161Z,1.42
2019-04-30T01:51:31.404Z,1.50
2019-04-30T01:54:00.556Z,1.75
2019-04-30T01:56:34.266Z,1.50
2019-04-30T01:59:23.412Z,1.30
2019-04-30T02:01:53.534Z,1.60
2019-04-30T02:04:22.695Z,1.60
2019-04-30T02:06:51.872Z,1.70
2019-04-30T02:09:21.099Z,1.50
2019-04-30T02:11:50.326Z,1.70
2019-04-30T02:14:19.597Z,1.52
2019-04-30T02:16:49.431Z,1.60
2019-04-30T02:19:18.953Z,1.60
2019-04-30T02:21:48.655Z,1.62
2019-04-30T02:24:19.206Z,1.55
2019-04-30T02:26:48.610Z,1.80
2019-04-30T02:29:19.124Z,2.02
2019-04-30T02:31:50.414Z,1.60
2019-04-30T02:34:22.177Z,1.52
2019-04-30T02:36:56.005Z,1.67
2019-04-30T02:39:25.282Z,1.47
2019-04-30T02:41:54.507Z,1.60
2019-04-30T02:44:23.656Z,1.80
2019-04-30T02:46:52.958Z,1.82
2019-04-30T02:49:22.347Z,1.90
2019-04-30T02:51:51.486Z,1.77
2019-04-30T02:54:24.027Z,1.70
2019-04-30T02:56:53.279Z,1.80
2019-04-30T02:59:22.518Z,1.70
2019-04-30T03:01:51.709Z,1.87
2019-04-30T03:04:20.868Z,1.87
2019-04-30T03:06:50.521Z,1.70
2019-04-30T03:09:20.322Z,1.80
2019-04-30T03:11:50.221Z,1.67
2019-04-30T03:14:20.073Z,1.80
2019-04-30T03:16:53.180Z,1.60
2019-04-30T03:19:29.317Z,1.70
2019-04-30T03:22:00.244Z,2.08
2019-04-30T03:24:30.634Z,1.92
2019-04-30T03:26:59.820Z,2.10
2019-04-30T03:29:30.372Z,2.08
2019-04-30T03:32:02.703Z,1.90
2019-04-30T03:34:32.762Z,1.90
2019-04-30T03:37:02.143Z,1.90
2019-04-30T03:39:33.850Z,1.95
2019-04-30T03:42:02.461Z,1.95
2019-04-30T03:44:32.324Z,2.10
2019-04-30T03:47:01.917Z,1.92
2019-04-30T03:49:31.152Z,2.10
2019-04-30T03:52:00.439Z,1.98
2019-04-30T03:54:29.666Z,1.87
2019-04-30T03:57:00.804Z,1.90
2019-04-30T03:59:30.395Z,1.67
2019-04-30T04:02:12.895Z,1.85
2019-04-30T04:04:44.045Z,1.85
2019-04-30T04:07:20.097Z,1.85
2019-04-30T04:12:30.822Z,1.80
2019-04-30T04:15:03.596Z,1.98
2019-04-30T04:17:32.067Z,1.95
2019-04-30T04:20:01.293Z,1.80
2019-04-30T04:22:30.877Z,1.90
2019-04-30T04:25:00.395Z,1.70
2019-04-30T04:27:30.387Z,1.70
2019-04-30T04:30:01.030Z,1.65
2019-04-30T04:32:31.965Z,1.72
2019-04-30T04:35:01.267Z,1.98
2019-04-30T04:37:30.611Z,2.00
2019-04-30T04:40:00.023Z,2.30
2019-04-30T04:42:32.720Z,1.90
2019-04-30T04:45:00.133Z,1.70
2019-04-30T04:47:30.949Z,1.80
2019-04-30T04:50:00.923Z,1.80
2019-04-30T04:52:31.382Z,1.87
2019-04-30T04:55:01.183Z,2.05
2019-04-30T04:57:30.828Z,2.10
2019-04-30T05:00:06.839Z,1.90
2019-04-30T05:02:39.665Z,1.67
2019-04-30T05:05:09.769Z,1.70
2019-04-30T05:07:39.905Z,1.90
2019-04-30T05:10:09.495Z,2.05
2019-04-30T05:12:39.886Z,2.17
2019-04-30T05:15:09.677Z,1.95
2019-04-30T05:17:40.084Z,1.85
2019-04-30T05:20:09.996Z,1.90
2019-04-30T05:22:39.478Z,1.90
2019-04-30T05:25:08.999Z,1.90
2019-04-30T05:27:39.202Z,1.90
2019-04-30T05:30:09.672Z,1.95
2019-04-30T05:32:39.770Z,2.17
2019-04-30T05:35:09.592Z,1.80
2019-04-30T05:37:39.069Z,1.90
2019-04-30T05:40:09.224Z,2.02
2019-04-30T05:42:39.499Z,2.10
2019-04-30T05:45:09.309Z,1.90
2019-04-30T05:47:39.112Z,2.10
2019-04-30T05:50:08.954Z,2.02
2019-04-30T05:52:39.817Z,2.20
2019-04-30T05:55:09.326Z,1.92
2019-04-30T05:57:52.446Z,2.08
2019-04-30T06:00:10.160Z,2.00
2019-04-30T06:02:40.055Z,2.45
2019-04-30T06:05:09.392Z,1.90
2019-04-30T06:07:39.453Z,2.40
2019-04-30T06:10:19.424Z,5.10
2019-04-30T06:12:51.324Z,5.05
2019-04-30T06:15:25.238Z,5.78
2019-04-30T06:18:00.659Z,5.72
2019-04-30T06:20:28.669Z,6.40
2019-04-30T06:22:59.696Z,7.20
2019-04-30T06:25:37.238Z,6.75
2019-04-30T06:27:59.893Z,7.17
2019-04-30T06:30:29.805Z,7.03
2019-04-30T06:32:59.591Z,7.00
2019-04-30T06:35:29.386Z,7.03
2019-04-30T06:37:59.214Z,7.30
2019-04-30T06:40:29.659Z,7.28
2019-04-30T06:43:00.754Z,7.35
2019-04-30T06:45:31.381Z,7.30
2019-04-30T06:48:00.920Z,7.28
2019-04-30T06:50:30.151Z,6.67
2019-04-30T06:53:01.534Z,7.87
2019-04-30T06:55:30.929Z,6.90
2019-04-30T06:58:12.018Z,6.35
2019-04-30T07:00:39.943Z,8.20
2019-04-30T07:03:09.775Z,7.92
2019-04-30T07:05:39.409Z,7.60
2019-04-30T07:08:36.371Z,6.83
2019-04-30T07:11:15.406Z,7.85
2019-04-30T07:13:49.533Z,7.60
2019-04-30T07:16:19.026Z,7.25
2019-04-30T07:18:49.493Z,6.80
2019-04-30T07:21:19.871Z,7.37
2019-04-30T07:23:50.320Z,7.35
2019-04-30T07:26:24.151Z,7.30
2019-04-30T07:28:54.807Z,7.00
2019-04-30T07:31:21.477Z,6.10
2019-04-30T07:33:53.808Z,7.20
2019-04-30T07:36:21.885Z,7.05
2019-04-30T07:38:56.151Z,7.45
2019-04-30T07:41:22.180Z,6.95
2019-04-30T07:43:51.611Z,7.17
2019-04-30T07:46:21.818Z,7.80
2019-04-30T07:48:52.688Z,7.03
2019-04-30T07:51:22.601Z,6.70
2019-04-30T07:53:52.382Z,7.17
2019-04-30T07:56:29.314Z,7.20
2019-04-30T07:59:00.666Z,7.50
2019-04-30T08:01:29.509Z,7.28
2019-04-30T08:04:18.952Z,7.22
2019-04-30T08:06:49.911Z,7.45
2019-04-30T08:09:22.134Z,7.50
2019-04-30T08:11:50.308Z,7.20
2019-04-30T08:14:24.569Z,6.85
2019-04-30T08:16:53.654Z,7.40
2019-04-30T08:19:23.653Z,6.37
2019-04-30T08:21:52.917Z,5.62
2019-04-30T08:24:22.280Z,4.72
2019-04-30T08:26:51.636Z,4.10
2019-04-30T08:29:21.915Z,4.33
2019-04-30T08:31:51.164Z,4.15
2019-04-30T08:34:20.482Z,4.60
2019-04-30T08:36:49.745Z,4.15
2019-04-30T08:39:19.731Z,3.80
2019-04-30T08:41:50.953Z,3.65
2019-04-30T08:44:21.244Z,3.58
2019-04-30T08:46:50.592Z,3.47
2019-04-30T08:49:20.347Z,3.40
2019-04-30T08:51:51.497Z,3.27
2019-04-30T08:54:21.168Z,3.27
2019-04-30T08:56:53.605Z,3.15
2019-04-30T08:59:26.070Z,3.72
2019-04-30T09:01:55.286Z,3.33
2019-04-30T09:04:26.108Z,3.37
2019-04-30T09:07:04.447Z,3.42
2019-04-30T09:09:35.272Z,3.25
2019-04-30T09:12:07.319Z,3.40
2019-04-30T09:14:36.536Z,4.03
2019-04-30T09:17:05.777Z,5.20
2019-04-30T09:19:34.980Z,4.20
2019-04-30T09:22:14.345Z,3.80
2019-04-30T09:24:39.259Z,4.12
2019-04-30T09:27:10.784Z,3.87
2019-04-30T09:29:40.189Z,4.40
2019-04-30T09:32:09.709Z,4.00
2019-04-30T09:34:40.413Z,4.00
2019-04-30T09:37:09.722Z,4.10
2019-04-30T09:39:39.374Z,3.90
2019-04-30T09:42:09.232Z,4.03
2019-04-30T09:44:38.995Z,4.10
2019-04-30T09:47:08.892Z,3.40
2019-04-30T09:49:39.138Z,4.05
2019-04-30T09:52:09.643Z,3.52
2019-04-30T09:54:39.974Z,4.00
2019-04-30T09:57:11.465Z,4.20
2019-04-30T09:59:41.851Z,3.92
2019-04-30T10:02:11.163Z,4.15
2019-04-30T10:04:40.702Z,3.87
2019-04-30T10:07:10.325Z,3.83
2019-04-30T10:09:39.600Z,4.08
2019-04-30T10:12:10.472Z,4.08
2019-04-30T10:14:41.007Z,3.67
2019-04-30T10:17:28.372Z,3.92
2019-04-30T10:19:57.599Z,3.77
2019-04-30T10:22:26.988Z,4.37
2019-04-30T10:24:56.248Z,4.20
2019-04-30T10:27:25.495Z,3.80
2019-04-30T10:29:54.814Z,4.10
2019-04-30T10:32:25.672Z,4.00
2019-04-30T10:34:54.906Z,4.05
2019-04-30T10:37:24.187Z,4.28
2019-04-30T10:39:53.489Z,4.08
2019-04-30T10:42:22.706Z,3.90
2019-04-30T10:44:51.974Z,4.33
2019-04-30T10:47:22.443Z,4.20
2019-04-30T10:49:53.246Z,3.87
2019-04-30T10:52:22.574Z,3.65
2019-04-30T10:54:52.033Z,3.50
2019-04-30T10:57:21.281Z,3.80
2019-04-30T10:59:50.627Z,4.10
2019-04-30T11:02:19.809Z,3.72
2019-04-30T11:04:49.547Z,3.90
2019-04-30T11:07:18.817Z,3.83
2019-04-30T11:09:49.413Z,3.70
2019-04-30T11:12:19.715Z,4.37
2019-04-30T11:14:48.898Z,3.55
2019-04-30T11:17:19.739Z,3.58
2019-04-30T11:19:49.509Z,3.58
2019-04-30T11:22:18.994Z,4.12
2019-04-30T11:24:58.886Z,3.87
2019-04-30T11:27:22.337Z,4.00
2019-04-30T11:29:52.406Z,4.08
2019-04-30T11:32:24.405Z,3.50
2019-04-30T11:34:54.750Z,3.60
2019-04-30T11:37:23.990Z,3.72
2019-04-30T11:39:53.556Z,3.47
2019-04-30T11:42:23.079Z,3.60
2019-04-30T11:44:53.635Z,3.70
2019-04-30T11:47:26.688Z,3.62
2019-04-30T11:49:55.915Z,3.65
2019-04-30T11:52:25.176Z,3.62
2019-04-30T11:54:54.822Z,3.95
2019-04-30T11:57:25.267Z,3.80
2019-04-30T11:59:54.647Z,3.67
2019-04-30T12:02:29.356Z,3.50
2019-04-30T12:04:58.793Z,3.30
2019-04-30T12:07:32.422Z,3.52
2019-04-30T12:10:05.942Z,3.30
2019-04-30T12:12:36.140Z,3.10
2019-04-30T12:15:09.301Z,3.12
2019-04-30T12:17:38.704Z,3.65
2019-04-30T12:20:08.638Z,3.12
2019-04-30T12:22:39.710Z,3.55
2019-04-30T12:25:10.003Z,3.37
2019-04-30T12:27:39.468Z,3.20
2019-04-30T12:30:10.340Z,3.40
2019-04-30T12:32:43.045Z,3.15
2019-04-30T12:35:12.304Z,3.50
2019-04-30T12:37:43.532Z,3.70
2019-04-30T12:40:25.822Z,3.65
2019-04-30T12:42:43.678Z,3.35
2019-04-30T12:45:14.783Z,3.20
2019-04-30T12:47:45.661Z,3.25
2019-04-30T12:50:16.569Z,3.20
2019-04-30T12:52:50.254Z,2.70
2019-04-30T12:55:22.514Z,2.72
2019-04-30T12:57:59.647Z,2.50
2019-04-30T13:00:29.324Z,2.70
2019-04-30T13:02:59.856Z,2.87
2019-04-30T13:05:30.938Z,2.77
2019-04-30T13:08:00.924Z,2.27
2019-04-30T13:10:30.946Z,2.50
2019-04-30T13:13:00.929Z,2.67
2019-04-30T13:15:30.525Z,2.50
2019-04-30T13:18:00.016Z,2.90
2019-04-30T13:20:29.508Z,2.87
2019-04-30T13:23:00.461Z,2.50
2019-04-30T13:25:35.375Z,2.60
2019-04-30T13:28:02.720Z,2.65
2019-04-30T13:30:33.421Z,3.05
2019-04-30T13:33:04.492Z,2.83
2019-04-30T13:35:34.142Z,3.58
2019-04-30T13:38:05.146Z,3.45
2019-04-30T13:40:36.006Z,3.12
2019-04-30T13:43:06.859Z,2.95
2019-04-30T13:45:36.526Z,3.37
2019-04-30T13:48:05.780Z,2.85
2019-04-30T13:50:35.992Z,3.27
2019-04-30T13:53:05.960Z,2.85
2019-04-30T13:55:43.666Z,3.02
2019-04-30T13:58:08.238Z,2.62
2019-04-30T14:00:39.552Z,3.00
2019-04-30T14:03:15.015Z,2.90
2019-04-30T14:05:44.403Z,3.20
2019-04-30T14:08:24.530Z,2.80
2019-04-30T14:10:53.803Z,2.70
2019-04-30T14:13:24.336Z,3.00
2019-04-30T14:15:55.977Z,3.42
2019-04-30T14:18:31.455Z,2.77
2019-04-30T14:21:00.778Z,2.70
2019-04-30T14:23:30.119Z,2.80
2019-04-30T14:26:01.126Z,2.85
2019-04-30T14:28:30.536Z,2.72
2019-04-30T14:31:00.254Z,2.70
2019-04-30T14:33:31.063Z,3.00
2019-04-30T14:36:00.877Z,2.55
2019-04-30T14:38:30.342Z,2.87
2019-04-30T14:41:00.530Z,2.50
2019-04-30T14:43:35.370Z,2.60
2019-04-30T14:46:25.565Z,2.72
2019-04-30T14:49:15.610Z,2.87
2019-04-30T14:51:45.734Z,2.92
2019-04-30T14:54:25.758Z,2.80
2019-04-30T14:57:00.131Z,2.90
2019-04-30T14:59:36.494Z,2.80
2019-04-30T15:02:10.075Z,2.50
2019-04-30T15:04:39.392Z,3.25
2019-04-30T15:07:09.709Z,2.20
2019-04-30T15:09:40.901Z,2.72
2019-04-30T15:12:10.134Z,2.45
2019-04-30T15:14:41.056Z,2.40
2019-04-30T15:17:10.985Z,2.22
2019-04-30T15:19:40.308Z,2.22
2019-04-30T15:22:14.140Z,2.27
2019-04-30T15:24:44.151Z,2.40
2019-04-30T15:27:13.445Z,2.80
2019-04-30T15:29:42.731Z,2.75
2019-04-30T15:32:13.703Z,2.08
2019-04-30T15:34:42.916Z,2.52
2019-04-30T15:37:21.587Z,2.50
2019-04-30T15:39:44.508Z,2.33
2019-04-30T15:42:13.761Z,2.10
2019-04-30T15:44:45.701Z,1.82
2019-04-30T15:47:13.974Z,2.45
2019-04-30T15:49:43.170Z,2.17
2019-04-30T15:52:12.364Z,2.45
2019-04-30T15:54:41.708Z,2.47
2019-04-30T15:57:11.120Z,2.37
2019-04-30T15:59:41.266Z,2.30
2019-04-30T16:02:14.372Z,2.50
2019-04-30T16:04:49.264Z,2.55
2019-04-30T16:07:20.765Z,2.77
2019-04-30T16:09:51.573Z,2.72
2019-04-30T16:12:26.352Z,2.37
2019-04-30T16:14:55.571Z,2.45
2019-04-30T16:17:26.161Z,2.50
2019-04-30T16:19:55.455Z,2.62
2019-04-30T16:22:24.755Z,2.65
2019-04-30T16:24:54.723Z,2.70
2019-04-30T16:27:24.130Z,2.85
2019-04-30T16:29:53.307Z,2.30
2019-04-30T16:32:23.351Z,2.70
2019-04-30T16:34:52.844Z,2.52
2019-04-30T16:37:21.998Z,2.08
2019-04-30T16:39:51.163Z,2.10
2019-04-30T16:42:20.372Z,2.45
2019-04-30T16:44:49.568Z,2.67
2019-04-30T16:47:19.932Z,2.33
2019-04-30T16:49:51.422Z,2.45
2019-04-30T16:52:20.590Z,2.10
2019-04-30T16:54:49.881Z,2.42
2019-04-30T16:57:19.119Z,2.40
2019-04-30T16:59:50.027Z,2.10
2019-04-30T17:02:19.306Z,2.00
2019-04-30T17:04:50.222Z,1.90
2019-04-30T17:07:24.118Z,1.67
2019-04-30T17:09:55.129Z,2.10
2019-04-30T17:12:25.950Z,2.12
2019-04-30T17:15:15.239Z,2.35
2019-04-30T17:17:44.495Z,2.33
2019-04-30T17:20:13.763Z,2.15
2019-04-30T17:22:42.943Z,2.30
2019-04-30T17:25:13.291Z,2.40
2019-04-30T17:27:42.552Z,1.82
2019-04-30T17:30:11.923Z,2.10
2019-04-30T17:32:41.261Z,1.85
2019-04-30T17:35:10.647Z,1.95
2019-04-30T17:37:39.969Z,1.82
2019-04-30T17:40:09.537Z,2.00
2019-04-30T17:42:38.967Z,1.80
2019-04-30T17:45:09.452Z,1.95
2019-04-30T17:47:38.815Z,2.00
2019-04-30T17:50:09.037Z,2.00
2019-04-30T17:52:38.399Z,1.90
2019-04-30T17:55:09.613Z,2.00
2019-04-30T17:57:40.301Z,1.72
2019-04-30T18:00:18.749Z,2.17
2019-04-30T18:02:41.552Z,2.20
2019-04-30T18:05:11.333Z,2.08
2019-04-30T18:07:42.348Z,2.20
2019-04-30T18:10:13.906Z,1.80
2019-04-30T18:12:43.103Z,1.98
2019-04-30T18:15:14.548Z,2.02
2019-04-30T18:17:45.457Z,2.10
2019-04-30T18:20:19.311Z,2.17
2019-04-30T18:23:06.456Z,2.02
2019-04-30T18:25:41.165Z,2.35
2019-04-30T18:28:10.312Z,1.98
2019-04-30T18:30:40.664Z,1.80
2019-04-30T18:33:10.034Z,1.85
2019-04-30T18:35:40.860Z,1.90
2019-04-30T18:38:10.083Z,1.70
2019-04-30T18:40:39.846Z,1.82
2019-04-30T18:43:09.392Z,1.60
2019-04-30T18:45:39.529Z,1.70
2019-04-30T18:48:10.125Z,1.87
2019-04-30T18:50:39.438Z,1.62
2019-04-30T18:53:13.004Z,1.80
2019-04-30T18:55:42.164Z,1.72
2019-04-30T18:58:11.375Z,1.60
2019-04-30T19:00:42.178Z,1.80
2019-04-30T19:03:11.614Z,1.65
2019-04-30T19:05:42.447Z,1.80
2019-04-30T19:08:13.239Z,2.00
2019-04-30T19:10:50.227Z,1.67
2019-04-30T19:13:37.270Z,1.65
2019-04-30T19:16:25.833Z,1.80
2019-04-30T19:18:56.994Z,1.80
2019-04-30T19:21:26.727Z,1.77
2019-04-30T19:23:55.927Z,1.65
2019-04-30T19:26:25.170Z,1.98
2019-04-30T19:28:54.360Z,1.55
2019-04-30T19:31:24.644Z,1.60
2019-04-30T19:33:53.821Z,1.67
2019-04-30T19:36:35.050Z,1.67
2019-04-30T19:38:53.920Z,1.70
2019-04-30T19:41:23.095Z,1.67
2019-04-30T19:43:52.274Z,1.70
2019-04-30T19:46:21.538Z,1.40
2019-04-30T19:48:50.817Z,1.27
2019-04-30T19:51:20.107Z,1.60
2019-04-30T19:53:49.321Z,1.50
2019-04-30T19:56:20.611Z,1.80
2019-04-30T19:59:01.721Z,1.52
2019-04-30T20:01:20.221Z,1.52
2019-04-30T20:03:49.368Z,1.57
2019-04-30T20:06:19.098Z,1.80
2019-04-30T20:08:48.411Z,1.60
2019-04-30T20:11:17.594Z,1.57
2019-04-30T20:13:48.757Z,1.65
2019-04-30T20:16:19.477Z,1.55
2019-04-30T20:18:49.050Z,1.40
2019-04-30T20:21:27.969Z,1.60
2019-04-30T20:23:50.894Z,1.37
2019-04-30T20:26:21.004Z,1.70
2019-04-30T20:28:50.199Z,1.40
2019-04-30T20:31:19.383Z,1.50
2019-04-30T20:33:49.012Z,1.52
2019-04-30T20:36:19.064Z,1.60
2019-04-30T20:38:54.016Z,1.30
2019-04-30T20:41:24.835Z,1.70
2019-04-30T20:43:54.090Z,1.40
2019-04-30T20:46:31.527Z,1.60
2019-04-30T20:48:54.271Z,1.60
2019-04-30T20:51:23.479Z,1.60
2019-04-30T20:53:52.666Z,1.65
2019-04-30T20:56:21.807Z,1.52
2019-04-30T20:58:57.802Z,1.52
2019-04-30T21:01:21.855Z,1.55
2019-04-30T21:03:51.011Z,1.50
2019-04-30T21:06:20.277Z,1.50
2019-04-30T21:08:49.464Z,1.47
2019-04-30T21:11:19.315Z,1.50
2019-04-30T21:13:49.204Z,1.50
2019-04-30T21:16:19.487Z,1.52
2019-04-30T21:18:48.671Z,1.40
2019-04-30T21:21:18.606Z,1.50
2019-04-30T21:23:49.205Z,1.50
2019-04-30T21:26:19.641Z,1.60
2019-04-30T21:28:49.413Z,1.32
2019-04-30T21:31:39.777Z,1.50
2019-04-30T21:34:22.745Z,1.52
2019-04-30T21:36:51.965Z,1.62
2019-04-30T21:39:21.108Z,1.60
2019-04-30T21:41:50.281Z,1.50
2019-04-30T21:44:19.458Z,1.35
2019-04-30T21:46:48.616Z,1.50
2019-04-30T21:49:17.788Z,1.60
2019-04-30T21:51:47.004Z,1.30
2019-04-30T21:54:16.178Z,1.35
2019-04-30T21:56:45.359Z,1.50
2019-04-30T21:59:24.152Z,1.22
2019-04-30T22:01:46.026Z,1.37
2019-04-30T22:04:15.452Z,1.50
2019-04-30T22:06:44.634Z,1.20
2019-04-30T22:09:14.255Z,1.60
2019-04-30T22:11:45.054Z,1.37
2019-04-30T22:14:14.298Z,1.37
2019-04-30T22:16:43.557Z,1.40
2019-04-30T22:19:12.765Z,1.40
2019-04-30T22:21:41.929Z,1.42
2019-04-30T22:24:11.246Z,1.42
2019-04-30T22:26:40.472Z,1.52
2019-04-30T22:29:09.660Z,1.52
2019-04-30T22:31:39.654Z,1.55
2019-04-30T22:34:08.980Z,1.57
2019-04-30T22:36:39.809Z,1.42
2019-04-30T22:39:22.301Z,1.20
2019-04-30T22:41:53.254Z,1.40
2019-04-30T22:44:22.419Z,1.25
2019-04-30T22:46:51.596Z,1.30
2019-04-30T22:49:20.766Z,1.55
2019-04-30T22:51:49.947Z,1.20
2019-04-30T22:54:19.109Z,1.30
2019-04-30T22:56:48.320Z,1.10
2019-04-30T22:59:17.469Z,1.25
2019-04-30T23:01:54.073Z,1.35
2019-04-30T23:04:24.861Z,1.35
2019-04-30T23:06:54.047Z,1.37
2019-04-30T23:09:23.194Z,1.62
2019-04-30T23:11:52.376Z,1.27
2019-04-30T23:14:21.540Z,1.40
2019-04-30T23:16:50.711Z,1.10
2019-04-30T23:19:21.042Z,1.32
2019-04-30T23:21:50.251Z,1.30
2019-04-30T23:24:19.407Z,1.20
2019-04-30T23:26:48.649Z,1.40
2019-04-30T23:29:18.923Z,1.05
2019-04-30T23:31:48.147Z,1.45
2019-04-30T23:34:18.272Z,1.10
2019-04-30T23:36:47.647Z,1.40
2019-04-30T23:39:16.873Z,1.12
2019-04-30T23:41:46.117Z,1.20
2019-04-30T23:44:15.327Z,1.40
2019-04-30T23:46:44.593Z,1.30
2019-04-30T23:49:13.771Z,1.60
2019-04-30T23:51:42.958Z,1.10
2019-04-30T23:54:12.140Z,1.47
2019-04-30T23:56:41.285Z,1.50
2019-04-30T23:59:10.466Z,1.15
